Tiempo atmosférico en la estación meteorológica de El Maíllo, Salamanca (1027 m.)



Fecha
DESCASC
Temp. máxima en grados centígrados (hora)
DESCASC
Temp. mínima en grados centígrados (hora)
DESCASC
Temp. media en grados centígrados
DESCASC
Racha de viento máxima en m/sg (hora)
DESCASC
Velocidad máxima media en intervalos de 10 minutos(hora)
DESCASC
Precipitaciones diarias en mm
DESCASC
Precipitaciones de 00:00 a 06:00 en mm
DESCASC
Precipitaciones de 06:00 a 12:00 en mm
DESCASC
Precipitaciones de 12:00 a 18:00 en mm
DESCASC
Precipitaciones de 18:00 a 24:00 en mm
DESCASC
23-05-2020 24.7 (18:10) 10.7 (06:10) 17.7 8.33 (23:59) 5.83 (23:59) 0 0 0 0 0
22-05-2020 25.9 (17:50) 10.8 (03:30) 18.3 7.5 (17:00) 4.44 (05:00) 0 0 0 0 0
21-05-2020 25.5 (17:50) 12.2 (00:00) 18.8 9.17 (19:00) 5.56 (16:00) 0 0 0 0 0
20-05-2020 25.6 (15:40) 10.7 (00:00) 18.2 8.33 (16:30) 5.28 (16:30) 0 0 0 0 0
19-05-2020 23.7 (18:10) 10.2 (01:20) 17 8.61 (13:20) 5.83 (13:20) 0 0 0 0 0
18-05-2020 22 (18:40) 6.6 (00:00) 14.3 7.78 (16:00) 3.89 (01:20) 0 0 0 0 0
17-05-2020 18 (19:30) 4.3 (00:00) 11.2 13.06 (14:40) 6.11 (13:00) 0 0 0 0 0
16-05-2020 16.5 (18:00) 6.3 (00:00) 11.4 9.17 (02:10) 6.67 (02:20) 0 0 0 0 0
15-05-2020 13.4 (16:10) 8.2 (08:20) 10.8 10.28 (23:10) 6.67 (23:10) 0.6 0.6 0 0 0
14-05-2020 13.7 (16:40) 6.1 (00:00) 9.9 11.11 (03:50) 7.5 (03:50) 2 2 0 0 0
13-05-2020 13.6 (16:30) 7.9 (00:00) 10.8 12.5 (16:00) 7.78 (17:10) 0.2 0 0 0.2 0
12-05-2020 13.5 (17:30) 5.7 (07:00) 9.6 8.33 (14:10) 5.83 (14:10) 2.8 0 0 0.4 2.4
11-05-2020 15.5 (16:40) 7.4 (00:00) 11.5 11.11 (15:20) 7.22 (15:30) 1.4 0.2 0.4 0 0.8
10-05-2020 13.3 (18:30) 4.9 (00:00) 9.1 9.72 (17:20) 6.11 (17:40) 0.6 0 0 0 0.6
09-05-2020 15.7 (16:10) 7.4 (23:59) 11.5 17.5 (19:00) 8.61 (18:00) 2.4 0 0 0 2.4
08-05-2020 20.9 (17:40) 13.2 (00:00) 17 11.94 (15:10) 6.94 (05:10) 2 1.8 0 0.2 0
07-05-2020 23.3 (13:10) 10.4 (00:00) 16.8 12.78 (20:30) 8.33 (20:10) 1.4 0 0 0 1.4
06-05-2020 19.9 (16:40) 6 (00:00) 12.9 6.11 (12:00) 3.61 (00:40) 0 0 0 0 0
05-05-2020 18.4 (17:40) 6.6 (00:00) 12.5 9.17 (18:50) 5.83 (18:20) 0 0 0 0 0
04-05-2020 22.7 (05:00) 11.8 (00:00) 17.3 18.61 (08:20) 11.11 (08:20) 0 0 0 0 0
03-05-2020 24.5 (17:40) 8.5 (04:40) 16.5 12.22 (23:20) 8.06 (23:20) 0 0 0 0 0
02-05-2020 22 (17:50) 8 (04:10) 15 12.22 (16:40) 7.22 (17:10) 0 0 0 0 0
01-05-2020 17.3 (17:10) 10.2 (00:00) 13.7 15.28 (06:30) 9.17 (11:10) 0 0 0 0 0
30-04-2020 13.6 (16:20) 6.8 (07:40) 10.2 12.5 (05:50) 8.33 (12:20) 0 0 0 0 0
29-04-2020 12.9 (13:00) 5.5 (00:00) 9.2 14.44 (15:10) 9.44 (18:40) 0 0 0 0 0
28-04-2020 11.4 (19:10) 4.5 (04:20) 7.9 10.56 (16:50) 6.94 (16:40) 0.8 0.2 0.6 0 0
27-04-2020 12.3 (15:10) 6 (00:00) 9.2 11.39 (15:40) 6.39 (15:40) 3.6 0 0.2 2.2 1.2
26-04-2020 13.7 (14:30) 7.1 (08:40) 10.4 8.33 (14:40) 5.56 (14:40) 0.8 0 0.4 0 0.4

Gráficas

Temp. máximas Temp. mínimas Temp. medias Precipitaciones Rachas de viento máximas Velocidades máximas media en intervalos de 10 minutos

Datos horarios

Fecha y hora oficial Temperatura (ºC) Velocidad del viento (km/h) Dirección del viento Racha (km/h) Dirección de racha Precipitación (mm) Presión (hPa) Tendencia (hPa) Humedad (%)
2020-05-25 23:00:00 19.5 14 Este 22 Este 0 -- -- 56
2020-05-25 22:00:00 20 10 Este 15 Nordeste 0 -- -- 57
2020-05-25 21:00:00 23.9 13 Nordeste 23 Nordeste 0 -- -- 45
2020-05-25 20:00:00 25.2 14 Nordeste 22 Nordeste 0 -- -- 42
2020-05-25 19:00:00 25.7 13 Nordeste 26 Norte 0 -- -- 40
2020-05-25 18:00:00 25.7 13 Nordeste 20 Nordeste 0 -- -- 39
2020-05-25 17:00:00 25.1 6 Nordeste 26 Nordeste 0 -- -- 43
2020-05-25 16:00:00 24.7 10 Nordeste 22 Norte 0 -- -- 48
2020-05-25 15:00:00 23.4 10 Nordeste 18 Nordeste 0 -- -- 52
2020-05-25 14:00:00 23.8 10 Norte 16 Norte 0 -- -- 52
2020-05-25 13:00:00 24.1 9 Nordeste 18 Nordeste 0 -- -- 53
2020-05-25 12:00:00 23.2 9 Norte 18 Nordeste 0 -- -- 57
2020-05-25 11:00:00 21.5 4 Norte 12 Nordeste 0 -- -- 68
2020-05-25 10:00:00 19.8 5 Noroeste 8 Oeste 0 -- -- 73
2020-05-25 09:00:00 18 3 Noroeste 12 Sur 0 -- -- 75
2020-05-25 08:00:00 14.7 12 Sur 17 Sur 0 -- -- 82
2020-05-25 07:00:00 14.3 12 Sur 17 Sur 0 -- -- 81
2020-05-25 06:00:00 14.5 11 Sur 16 Sur 0 -- -- 79
2020-05-25 05:00:00 15.3 14 Sur 17 Sur 0 -- -- 76
2020-05-25 04:00:00 14.6 12 Sudeste 14 Sudeste 0 -- -- 79
2020-05-25 03:00:00 15.2 13 Sur 15 Sur 0 -- -- 80
2020-05-25 02:00:00 15.5 13 Sur 15 Sudeste 0 -- -- 82
2020-05-25 01:00:00 15.6 10 Sudeste 15 Sudeste 0 -- -- 82
2020-05-25 00:00:00 16.3 12 Sur 14 Sudeste 0 -- -- 80
2020-05-24 23:00:00 17.1 10 Sudeste 14 Sudeste 0 -- -- 79
2020-05-24 22:00:00 20 5 Sudeste 8 Noroeste 0 -- -- 73
2020-05-24 21:00:00 23.1 8 Noroeste 13 Noroeste 0 -- -- 62
2020-05-24 20:00:00 24.9 7 Noroeste 21 Oeste 0 -- -- 52
2020-05-24 19:00:00 25.4 12 Noroeste 23 Noroeste 0 -- -- 50
2020-05-24 18:00:00 25.2 11 Noroeste 21 Oeste 0 -- -- 53
2020-05-24 17:00:00 24.8 6 Noroeste 30 Sudoeste 0 -- -- 58
2020-05-24 16:00:00 24.1 7 Noroeste 18 Noroeste 0 -- -- 59
2020-05-24 15:00:00 23.7 7 Nordeste 15 Noroeste 0 -- -- 61
2020-05-24 14:00:00 22.2 7 Noroeste 18 Noroeste 0 -- -- 62
2020-05-24 13:00:00 21 5 Norte 17 Noroeste 0 -- -- 63
2020-05-24 12:00:00 20 6 Noroeste 11 Oeste 0 -- -- 69
2020-05-24 11:00:00 18.2 4 Noroeste 10 Noroeste 0 -- -- 69
2020-05-24 10:00:00 16.2 4 Noroeste 10 Oeste 0 -- -- 73
2020-05-24 09:00:00 14.4 0 Calma 6 Oeste 0 -- -- 82
2020-05-24 08:00:00 10.8 2 Sudoeste 9 Oeste 0 -- -- 89
2020-05-24 07:00:00 13.6 2 Este 20 Este 0 -- -- 77
2020-05-24 06:00:00 13.1 13 Este 22 Este 0 -- -- 80
2020-05-24 05:00:00 12.5 16 Nordeste 22 Nordeste 0 -- -- 83
2020-05-24 04:00:00 15.4 15 Nordeste 20 Este 0 -- -- 78
2020-05-24 03:00:00 15.9 15 Este 22 Este 0 -- -- 78
2020-05-24 02:00:00 16.2 15 Este 24 Este 0 -- -- 78
2020-05-24 01:00:00 16.2 17 Este 25 Este 0 -- -- 80
2020-05-24 00:00:00 17.1 21 Este 30 Este 0 -- -- 76
2020-05-23 23:00:00 17.3 8 Nordeste 15 Nordeste 0 -- -- 74
2020-05-23 22:00:00 18.8 4 Este 8 Norte 0 -- -- 74
2020-05-23 21:00:00 21.8 6 Norte 14 Noroeste 0 -- -- 62
2020-05-23 20:00:00 24.3 7 Norte 19 Noroeste 0 -- -- 54
2020-05-23 19:00:00 24.6 7 Noroeste 21 Oeste 0 -- -- 52
2020-05-23 18:00:00 24.5 10 Noroeste 23 Noroeste 0 -- -- 52
2020-05-23 17:00:00 24.2 9 Noroeste 21 Oeste 0 -- -- 52
2020-05-23 16:00:00 23.6 11 Noroeste 21 Noroeste 0 -- -- 54
2020-05-23 15:00:00 23 9 Oeste 15 Norte 0 -- -- 56
2020-05-23 14:00:00 22.1 6 Norte 17 Oeste 0 -- -- 54
2020-05-23 13:00:00 20.9 4 Este 13 Noroeste 0 -- -- 63
2020-05-23 12:00:00 19.1 6 Norte 17 Noroeste 0 -- -- 72
2020-05-23 11:00:00 18.5 12 Noroeste 18 Oeste 0 -- -- 80
2020-05-23 10:00:00 18.5 6 Noroeste 12 Norte 0 -- -- 74
2020-05-23 09:00:00 17.9 9 Nordeste 13 Este 0 -- -- 66
2020-05-23 08:00:00 12.7 6 Sudeste 12 Sur 0 -- -- 92
2020-05-23 07:00:00 11 5 Sudeste 14 Sudeste 0 -- -- 95
2020-05-23 06:00:00 10.9 4 Sur 10 Sur 0 -- -- 92
2020-05-23 05:00:00 11.8 4 Sudoeste 14 Sudeste 0 -- -- 87
2020-05-23 04:00:00 12.9 9 Sudeste 14 Sur 0 -- -- 88
2020-05-23 03:00:00 13.2 10 Sur 15 Sur 0 -- -- 91
2020-05-23 02:00:00 14 7 Sudoeste 13 Sur 0 -- -- 91
2020-05-23 01:00:00 15.7 9 Sudoeste 13 Sudoeste 0 -- -- 89
2020-05-23 00:00:00 16.3 10 Sudoeste 14 Sudoeste 0 -- -- 84
2020-05-22 23:00:00 15.9 11 Sur 14 Sur 0 -- -- 69
2020-05-22 22:00:00 18.1 12 Sur 14 Sur 0 -- -- 62
2020-05-22 21:00:00 23.7 3 Oeste 17 Noroeste 0 -- -- 47
2020-05-22 20:00:00 25.2 9 Noroeste 23 Oeste 0 -- -- 38
2020-05-22 19:00:00 25.6 14 Oeste 22 Noroeste 0 -- -- 37
2020-05-22 18:00:00 25.9 9 Norte 23 Noroeste 0 -- -- 38
2020-05-22 17:00:00 25.5 14 Noroeste 27 Noroeste 0 -- -- 38
2020-05-22 16:00:00 25.4 10 Noroeste 20 Noroeste 0 -- -- 44
2020-05-22 15:00:00 24.6 8 Noroeste 17 Noroeste 0 -- -- 49
2020-05-22 14:00:00 23.8 8 Noroeste 20 Noroeste 0 -- -- 55
2020-05-22 13:00:00 23.4 5 Norte 13 Noroeste 0 -- -- 44
2020-05-22 12:00:00 22.4 4 Norte 11 Norte 0 -- -- 39
2020-05-22 11:00:00 20.6 5 Nordeste 10 Nordeste 0 -- -- 61
2020-05-22 10:00:00 19.6 4 Norte 10 Norte 0 -- -- 65
2020-05-22 09:00:00 16.6 3 Sudeste 15 Sur 0 -- -- 79
2020-05-22 08:00:00 11.9 13 Sur 17 Sudeste 0 -- -- 87
2020-05-22 07:00:00 11.2 13 Sur 19 Sudeste 0 -- -- 90
2020-05-22 06:00:00 11.2 15 Sur 19 Sur 0 -- -- 82
2020-05-22 05:00:00 11.1 16 Sur 18 Sur 0 -- -- 77
2020-05-22 04:00:00 10.9 13 Sur 15 Sur 0 -- -- 76
2020-05-22 03:00:00 11.3 10 Sur 15 Sudeste 0 -- -- 74
2020-05-22 02:00:00 12 7 Sudeste 17 Sur 0 -- -- 72
2020-05-22 01:00:00 12.2 9 Sudeste 15 Sur 0 -- -- 68
2020-05-22 00:00:00 14 12 Sur 16 Sur 0 -- -- 66
2020-05-21 23:00:00 14.9 9 Sur 14 Sudoeste 0 -- -- 66
2020-05-21 22:00:00 17.3 10 Sudoeste 14 Sudoeste 0 -- -- 56
2020-05-21 21:00:00 22.2 11 Sudoeste 27 Oeste 0 -- -- 44
2020-05-21 20:00:00 24 17 Oeste 29 Oeste 0 -- -- 39
2020-05-21 19:00:00 25 18 Oeste 33 Sudoeste 0 -- -- 32
2020-05-21 18:00:00 25.5 12 Sudoeste 27 Sudeste 0 -- -- 33
2020-05-21 17:00:00 25.2 14 Sudeste 31 Sudeste 0 -- -- 35
2020-05-21 16:00:00 25 20 Sur 31 Sudeste 0 -- -- 33
2020-05-21 15:00:00 25.2 13 Sur 30 Sudeste 0 -- -- 41
2020-05-21 14:00:00 25 15 Sur 31 Sur 0 -- -- 35
2020-05-21 13:00:00 24.6 17 Sur 30 Sudeste 0 -- -- 40
2020-05-21 12:00:00 24 15 Sudeste 31 Sur 0 -- -- 39
2020-05-21 11:00:00 24 7 Sur 16 Sur 0 -- -- 36
2020-05-21 10:00:00 19.4 0 Calma 11 Oeste 0 -- -- 63
2020-05-21 09:00:00 18 6 Sudeste 14 Sudeste 0 -- -- 60
2020-05-21 08:00:00 14.2 13 Sur 15 Sur 0 -- -- 77
2020-05-21 07:00:00 12.3 8 Sudeste 11 Norte 0 -- -- 88
2020-05-21 06:00:00 12.5 10 Sudeste 11 Sudeste 0 -- -- 88
2020-05-21 05:00:00 12.7 7 Sudeste 13 Sudeste 0 -- -- 88
2020-05-21 04:00:00 13.3 12 Sur 17 Sudeste 0 -- -- 88
2020-05-21 03:00:00 14.1 10 Sur 18 Sur 0 -- -- 87
2020-05-21 02:00:00 14.4 14 Sur 18 Sur 0 -- -- 86
2020-05-21 01:00:00 15 11 Sur 16 Sur 0 -- -- 84
2020-05-21 00:00:00 15.1 11 Sur 17 Sudoeste 0 -- -- 83
2020-05-20 23:00:00 15.8 8 Sur 14 Sur 0 -- -- 77
2020-05-20 22:00:00 17.2 12 Sur 14 Sur 0 -- -- 62
2020-05-20 21:00:00 21.4 3 Sur 10 Norte 0 -- -- 53
2020-05-20 20:00:00 24.8 6 Norte 17 Noroeste 0 -- -- 39
2020-05-20 19:00:00 25.3 12 Noroeste 19 Noroeste 0 -- -- 38
2020-05-20 18:00:00 25.4 12 Noroeste 24 Noroeste 0 -- -- 39
2020-05-20 17:00:00 25.2 15 Oeste 30 Oeste 0 -- -- 36
2020-05-20 16:00:00 25.1 11 Oeste 23 Oeste 0 -- -- 39
2020-05-20 15:00:00 24.7 8 Norte 24 Norte 0 -- -- 35
2020-05-20 14:00:00 24.4 14 Nordeste 28 Nordeste 0 -- -- 40
2020-05-20 13:00:00 23.8 14 Nordeste 26 Este 0 -- -- 36
2020-05-20 12:00:00 23.2 12 Nordeste 28 Este 0 -- -- 40
2020-05-20 11:00:00 22.5 13 Este 23 Este 0 -- -- 43
2020-05-20 10:00:00 21.4 13 Este 22 Este 0 -- -- 40
2020-05-20 09:00:00 19.2 12 Este 17 Este 0 -- -- 51
2020-05-20 08:00:00 11.7 4 Sudeste 12 Sudeste 0 -- -- 76
2020-05-20 07:00:00 11.2 7 Sudeste 10 Sudeste 0 -- -- 76
2020-05-20 06:00:00 11.7 3 Sudeste 12 Sudeste 0 -- -- 72
2020-05-20 05:00:00 11.3 5 Sudeste 11 Este 0 -- -- 74
2020-05-20 04:00:00 10.7 7 Sudeste 10 Sudeste 0 -- -- 73
2020-05-20 03:00:00 11 6 Sudeste 13 Este 0 -- -- 70
2020-05-20 02:00:00 13.9 10 Sudeste 12 Sudeste 0 -- -- 56
2020-05-20 01:00:00 15.3 10 Sudeste 13 Este 0 -- -- 53
2020-05-20 00:00:00 15.7 11 Sudeste 15 Este 0 -- -- 53
2020-05-19 23:00:00 13.5 6 Sur 11 Este 0 -- -- 67
2020-05-19 22:00:00 17.8 10 Este 12 Este 0 -- -- 52
2020-05-19 21:00:00 21.5 8 Nordeste 16 Norte 0 -- -- 45
2020-05-19 20:00:00 23 10 Nordeste 21 Nordeste 0 -- -- 37
2020-05-19 19:00:00 23.5 9 Nordeste 21 Norte 0 -- -- 36
2020-05-19 18:00:00 23.5 12 Nordeste 20 Nordeste 0 -- -- 37
2020-05-19 17:00:00 23.5 6 Norte 22 Nordeste 0 -- -- 39
2020-05-19 16:00:00 22.8 11 Norte 25 Nordeste 0 -- -- 40
2020-05-19 15:00:00 22.3 11 Nordeste 29 Nordeste 0 -- -- 40
2020-05-19 14:00:00 21.8 17 Nordeste 31 Nordeste 0 -- -- 42
2020-05-19 13:00:00 21.7 13 Nordeste 25 Nordeste 0 -- -- 44
2020-05-19 12:00:00 20.6 17 Nordeste 29 Este 0 -- -- 45
2020-05-19 11:00:00 20.1 18 Nordeste 27 Este 0 -- -- 40
2020-05-19 10:00:00 19 16 Este 24 Este 0 -- -- 37
2020-05-19 09:00:00 17.8 12 Nordeste 18 Nordeste 0 -- -- 40
2020-05-19 08:00:00 14.9 12 Este 18 Este 0 -- -- 51
2020-05-19 07:00:00 14.3 14 Este 19 Este 0 -- -- 58
2020-05-19 06:00:00 14.3 12 Este 18 Este 0 -- -- 57
2020-05-19 05:00:00 14.3 13 Este 17 Este 0 -- -- 58
2020-05-19 04:00:00 14.1 11 Este 18 Este 0 -- -- 55
2020-05-19 03:00:00 14 12 Este 14 Este 0 -- -- 53
2020-05-19 02:00:00 13.4 11 Este 13 Este 0 -- -- 58
2020-05-19 01:00:00 10.8 8 Sudeste 15 Este 0 -- -- 74
2020-05-19 00:00:00 11.3 6 Sudeste 13 Sudeste 0 -- -- 75
2020-05-18 23:00:00 12.5 11 Sur 13 Sur 0 -- -- 71
2020-05-18 22:00:00 15 7 Sudeste 9 Nordeste 0 -- -- 66
2020-05-18 21:00:00 20.4 6 Norte 17 Norte 0 -- -- 50
2020-05-18 20:00:00 21.4 10 Norte 21 Norte 0 -- -- 44
2020-05-18 19:00:00 21.7 7 Norte 22 Nordeste 0 -- -- 43
2020-05-18 18:00:00 21.8 11 Norte 24 Noroeste 0 -- -- 37
2020-05-18 17:00:00 21.8 10 Norte 22 Norte 0 -- -- 41
2020-05-18 16:00:00 21.2 10 Norte 28 Norte 0 -- -- 38
2020-05-18 15:00:00 20.8 10 Nordeste 22 Norte 0 -- -- 40
2020-05-18 14:00:00 20.1 8 Norte 22 Norte 0 -- -- 43
2020-05-18 13:00:00 19.3 9 Nordeste 19 Norte 0 -- -- 46
2020-05-18 12:00:00 18.6 11 Nordeste 20 Norte 0 -- -- 45
2020-05-18 11:00:00 17.8 9 Nordeste 19 Nordeste 0 -- -- 41
2020-05-18 10:00:00 16.7 12 Este 19 Este 0 -- -- 42
2020-05-18 09:00:00 15 8 Nordeste 12 Nordeste 0 -- -- 51
2020-05-18 08:00:00 7.8 6 Este 11 Este 0 -- -- 78
2020-05-18 07:00:00 7.4 6 Sudeste 14 Este 0 -- -- 74
2020-05-18 06:00:00 10.8 12 Este 16 Este 0 -- -- 61
2020-05-18 05:00:00 10.4 11 Este 14 Este 0 -- -- 61
2020-05-18 04:00:00 10.4 10 Este 14 Este 0 -- -- 63
2020-05-18 03:00:00 8.2 9 Sudeste 11 Este 0 -- -- 76
2020-05-18 02:00:00 9.3 9 Sudeste 16 Este 0 -- -- 72
2020-05-18 01:00:00 7.6 8 Sudeste 11 Sudeste 0 -- -- 81
2020-05-18 00:00:00 7.7 7 Sudeste 13 Sudeste 0 -- -- 78
2020-05-17 23:00:00 9.1 9 Sudeste 13 Sudeste 0 -- -- 76
2020-05-17 22:00:00 12.1 4 Este 9 Nordeste 0 -- -- 66
2020-05-17 21:00:00 16.6 9 Nordeste 24 Nordeste 0 -- -- 50
2020-05-17 20:00:00 17.7 15 Norte 25 Nordeste 0 -- -- 44
2020-05-17 19:00:00 17.8 13 Norte 24 Nordeste 0 -- -- 45
2020-05-17 18:00:00 17.5 16 Nordeste 33 Norte 0 -- -- 47
2020-05-17 17:00:00 17.3 12 Nordeste 30 Nordeste 0 -- -- 54
2020-05-17 16:00:00 16.4 15 Nordeste 31 Nordeste 0 -- -- 55
2020-05-17 15:00:00 15.7 16 Nordeste 47 Nordeste 0 -- -- 55
2020-05-17 14:00:00 15.2 14 Nordeste 36 Nordeste 0 -- -- 59
2020-05-17 13:00:00 14.3 22 Nordeste 33 Nordeste 0 -- -- 60
2020-05-17 12:00:00 13.2 20 Nordeste 35 Nordeste 0 -- -- 65
2020-05-17 11:00:00 11.6 14 Nordeste 24 Nordeste 0 -- -- 67
2020-05-17 10:00:00 10.2 17 Nordeste 24 Nordeste 0 -- -- 69
2020-05-17 09:00:00 7.9 8 Nordeste 17 Nordeste 0 -- -- 84
2020-05-17 08:00:00 5 9 Nordeste 13 Este 0 -- -- 93
2020-05-17 07:00:00 4.5 10 Nordeste 13 Nordeste 0 -- -- 92
2020-05-17 06:00:00 4.8 10 Nordeste 15 Este 0 -- -- 89
2020-05-17 05:00:00 6.3 13 Nordeste 20 Nordeste 0 -- -- 86
2020-05-17 04:00:00 6.4 14 Este 20 Este 0 -- -- 87
2020-05-17 03:00:00 7.8 15 Este 30 Este 0 -- -- 83
2020-05-17 02:00:00 8.7 16 Este 23 Este 0 -- -- 82
2020-05-17 01:00:00 9.7 17 Este 23 Este 0 -- -- 79
2020-05-17 00:00:00 10.6 16 Este 25 Este 0 -- -- 75
2020-05-16 23:00:00 11.2 13 Este 21 Este 0 -- -- 74
2020-05-16 22:00:00 11.7 10 Este 20 Nordeste 0 -- -- 73
2020-05-16 21:00:00 13.6 12 Nordeste 28 Nordeste 0 -- -- 67
2020-05-16 20:00:00 16 14 Nordeste 23 Norte 0 -- -- 57
2020-05-16 19:00:00 15.3 14 Nordeste 28 Nordeste 0 -- -- 63
2020-05-16 18:00:00 16.5 13 Norte 26 Nordeste 0 -- -- 59
2020-05-16 17:00:00 15.4 12 Norte 22 Nordeste 0 -- -- 63
2020-05-16 16:00:00 14.4 12 Nordeste 20 Norte 0 -- -- 64
2020-05-16 15:00:00 14.2 11 Nordeste 23 Nordeste 0 -- -- 63
2020-05-16 14:00:00 13.9 13 Nordeste 26 Nordeste 0 -- -- 69
2020-05-16 13:00:00 12.3 13 Nordeste 24 Nordeste 0 -- -- 79
2020-05-16 12:00:00 11.6 18 Nordeste 24 Norte 0 -- -- 77
2020-05-16 11:00:00 10.9 12 Norte 21 Nordeste 0 -- -- 80
2020-05-16 10:00:00 8.9 14 Nordeste 18 Nordeste 0 -- -- 86
2020-05-16 09:00:00 6.8 14 Nordeste 25 Este 0 -- -- 93
2020-05-16 08:00:00 6.3 21 Nordeste 28 Nordeste 0 -- -- 95
2020-05-16 07:00:00 6.6 16 Nordeste 26 Nordeste 0 -- -- 94
2020-05-16 06:00:00 6.8 19 Nordeste 28 Nordeste 0 -- -- 94
2020-05-16 05:00:00 7 15 Este 24 Nordeste 0 -- -- 92
2020-05-16 04:00:00 7.5 12 Nordeste 22 Nordeste 0 -- -- 91
2020-05-16 03:00:00 7.8 15 Nordeste 33 Nordeste 0 -- -- 90
2020-05-16 02:00:00 8 22 Nordeste 33 Nordeste 0 -- -- 90
2020-05-16 01:00:00 8.4 15 Nordeste 30 Este 0 -- -- 90
2020-05-16 00:00:00 8.7 22 Nordeste 37 Nordeste 0 -- -- 88
2020-05-15 23:00:00 10 22 Nordeste 35 Nordeste 0 -- -- 83
2020-05-15 22:00:00 11 17 Nordeste 27 Nordeste 0 -- -- 78
2020-05-15 21:00:00 11.8 9 Nordeste 19 Nordeste 0 -- -- 78
2020-05-15 20:00:00 11.7 11 Nordeste 31 Nordeste 0 -- -- 79
2020-05-15 19:00:00 12.3 20 Nordeste 34 Nordeste 0 -- -- 71
2020-05-15 18:00:00 13.3 15 Nordeste 30 Nordeste 0 -- -- 69
2020-05-15 17:00:00 13 19 Nordeste 30 Norte 0 -- -- 69
2020-05-15 16:00:00 13.3 14 Nordeste 30 Nordeste 0 -- -- 68
2020-05-15 15:00:00 13.1 19 Nordeste 32 Nordeste 0 -- -- 69
2020-05-15 14:00:00 12.7 18 Nordeste 31 Nordeste 0 -- -- 74
2020-05-15 13:00:00 11.9 17 Nordeste 28 Nordeste 0 -- -- 78
2020-05-15 12:00:00 10.5 15 Nordeste 26 Nordeste 0 -- -- 85
2020-05-15 11:00:00 9.2 14 Nordeste 24 Nordeste 0 -- -- 92
2020-05-15 10:00:00 9.3 15 Nordeste 23 Nordeste 0 -- -- 91
2020-05-15 09:00:00 9.1 14 Este 22 Nordeste 0 -- -- 96
2020-05-15 08:00:00 8.4 13 Nordeste 21 Nordeste 0 -- -- 97
2020-05-15 07:00:00 8.5 5 Nordeste 8 Norte 0 -- -- 97
2020-05-15 06:00:00 8.8 3 Nordeste 7 Nordeste 0 -- -- 97
2020-05-15 05:00:00 8.9 5 Nordeste 8 Nordeste 0 -- -- 96
2020-05-15 04:00:00 8.5 8 Sur 9 Sur 0 -- -- 95
2020-05-15 03:00:00 8.9 4 Este 8 Este 0.2 -- -- 95
2020-05-15 02:00:00 9.1 4 Sur 17 Este 0.4 -- -- 90
2020-05-15 01:00:00 9.5 4 Este 9 Este 0 -- -- 87
2020-05-15 00:00:00 9.7 3 Este 8 Este 0 -- -- 86
2020-05-14 23:00:00 9.1 5 Sur 7 Sur 0 -- -- 87
2020-05-14 22:00:00 10.2 2 Sur 10 Noroeste 0 -- -- 82
2020-05-14 21:00:00 11.4 5 Noroeste 13 Norte 0 -- -- 72
2020-05-14 20:00:00 12.6 5 Noroeste 9 Noroeste 0 -- -- 67
2020-05-14 19:00:00 13.1 2 Norte 7 Norte 0 -- -- 61
2020-05-14 18:00:00 12.7 3 Oeste 13 Sur 0 -- -- 55
2020-05-14 17:00:00 13.3 9 Sur 27 Sudoeste 0 -- -- 55
2020-05-14 16:00:00 12.8 6 Sur 20 Sudeste 0 -- -- 56
2020-05-14 15:00:00 12.2 8 Sur 19 Sudeste 0 -- -- 60
2020-05-14 14:00:00 10.6 6 Sur 14 Sur 0 -- -- 70
2020-05-14 13:00:00 9.7 4 Norte 12 Nordeste 0 -- -- 77
2020-05-14 12:00:00 8.6 5 Nordeste 10 Nordeste 0 -- -- 82
2020-05-14 11:00:00 7.9 2 Sur 19 Sur 0 -- -- 81
2020-05-14 10:00:00 7.5 4 Sur 12 Sur 0 -- -- 85
2020-05-14 09:00:00 6.7 4 Sur 27 Sur 0 -- -- 88
2020-05-14 08:00:00 6.1 10 Sur 17 Sur 0 -- -- 90
2020-05-14 07:00:00 6.6 0 Calma 27 Sudeste 0 -- -- 89
2020-05-14 06:00:00 6.8 8 Sudeste 21 Oeste 0.2 -- -- 85
2020-05-14 05:00:00 7.2 12 Sudoeste 29 Sur 0.6 -- -- 90
2020-05-14 04:00:00 8 23 Sudeste 40 Sur 1 -- -- 87
2020-05-14 03:00:00 8.8 23 Sudeste 35 Sudeste 0.2 -- -- 88
2020-05-14 02:00:00 9 0 Calma 6 Este 0 -- -- 88
2020-05-14 01:00:00 8.5 0 Calma 17 Nordeste 0 -- -- 88
2020-05-14 00:00:00 10.4 12 Nordeste 36 Este 0 -- -- 79
2020-05-13 23:00:00 10.4 6 Sudeste 28 Sudeste 0 -- -- 76
2020-05-13 22:00:00 11 14 Sudeste 41 Sudeste 0 -- -- 73
2020-05-13 21:00:00 11.4 14 Sudeste 32 Sur 0 -- -- 67
2020-05-13 20:00:00 12.3 13 Sudeste 27 Sudeste 0 -- -- 68
2020-05-13 19:00:00 12.6 23 Sudeste 42 Sudeste 0 -- -- 65
2020-05-13 18:00:00 13.2 28 Sudeste 44 Sudeste 0 -- -- 66
2020-05-13 17:00:00 13 27 Sudeste 42 Sudeste 0 -- -- 65
2020-05-13 16:00:00 13.5 26 Sur 45 Sur 0 -- -- 68
2020-05-13 15:00:00 12.7 26 Sur 40 Sur 0 -- -- 74
2020-05-13 14:00:00 11.8 11 Sudeste 28 Sudeste 0 -- -- 76
2020-05-13 13:00:00 9.9 14 Sur 27 Sudeste 0.2 -- -- 86
2020-05-13 12:00:00 10.9 7 Sudeste 20 Sudeste 0 -- -- 82
2020-05-13 11:00:00 10.4 3 Oeste 12 Sudeste 0 -- -- 84
2020-05-13 10:00:00 9.7 4 Este 10 Sur 0 -- -- 87
2020-05-13 09:00:00 9.2 8 Sur 15 Sudeste 0 -- -- 88
2020-05-13 08:00:00 8.3 0 Calma 12 Sur 0 -- -- 89
2020-05-13 07:00:00 8.1 9 Sur 17 Sudoeste 0 -- -- 91
2020-05-13 06:00:00 8.2 3 Oeste 19 Noroeste 0 -- -- 91
2020-05-13 05:00:00 8.5 3 Nordeste 13 Este 0 -- -- 90
2020-05-13 04:00:00 8.3 8 Noroeste 14 Oeste 0 -- -- 95
2020-05-13 03:00:00 8.3 2 Norte 6 Norte 0 -- -- 96
2020-05-13 02:00:00 8.2 0 Calma 9 Nordeste 0 -- -- 95
2020-05-13 01:00:00 8.5 6 Este 11 Oeste 0 -- -- 92
2020-05-13 00:00:00 8.9 3 Sur 19 Sudeste 0 -- -- 85
2020-05-12 23:00:00 8.9 13 Sudeste 23 Sudeste 0 -- -- 88
2020-05-12 22:00:00 9 7 Sur 13 Este 0 -- -- 91
2020-05-12 21:00:00 9.4 10 Este 15 Este 0.4 -- -- 92
2020-05-12 20:00:00 10.4 3 Este 13 Sur 0.2 -- -- 89
2020-05-12 19:00:00 10.2 10 Sur 23 Oeste 1.8 -- -- 88
2020-05-12 18:00:00 13 8 Noroeste 13 Oeste 0 -- -- 70
2020-05-12 17:00:00 12.9 6 Oeste 16 Sudoeste 0 -- -- 66
2020-05-12 16:00:00 12.9 6 Sudoeste 14 Este 0 -- -- 64
2020-05-12 15:00:00 12.4 9 Este 30 Sudeste 0 -- -- 63
2020-05-12 14:00:00 11.1 11 Sudeste 27 Sudeste 0 -- -- 74
2020-05-12 13:00:00 11.1 4 Sur 12 Sur 0.4 -- -- 82
2020-05-12 12:00:00 11.9 5 Norte 11 Noroeste 0 -- -- 76
2020-05-12 11:00:00 11.5 4 Noroeste 7 Oeste 0 -- -- 77
2020-05-12 10:00:00 10 4 Noroeste 8 Sur 0 -- -- 91
2020-05-12 09:00:00 8.4 8 Sur 14 Sur 0 -- -- 93
2020-05-12 08:00:00 6.9 7 Sur 13 Sudeste 0 -- -- 94
2020-05-12 07:00:00 5.7 10 Sudeste 14 Sur 0 -- -- 94
2020-05-12 06:00:00 6 10 Sudeste 15 Sudeste 0 -- -- 95
2020-05-12 05:00:00 6 9 Sur 13 Sur 0 -- -- 96
2020-05-12 04:00:00 6.4 8 Sudeste 17 Sur 0 -- -- 96
2020-05-12 03:00:00 6.6 9 Sudeste 10 Sudeste 0 -- -- 95
2020-05-12 02:00:00 7.6 8 Sudeste 10 Sudeste 0 -- -- 93
2020-05-12 01:00:00 9.3 2 Oeste 19 Sudoeste 0 -- -- 91
2020-05-12 00:00:00 10 9 Sudoeste 19 Sudoeste 0 -- -- 92
2020-05-11 23:00:00 10.5 9 Sudoeste 23 Sudoeste 0 -- -- 90
2020-05-11 22:00:00 10.7 12 Sudoeste 23 Sur 0.8 -- -- 92
2020-05-11 21:00:00 12.1 8 Sur 30 Sur 0 -- -- 78
2020-05-11 20:00:00 13.4 16 Sur 36 Sudoeste 0 -- -- 74
2020-05-11 19:00:00 14.4 20 Sur 33 Sudoeste 0 -- -- 71
2020-05-11 18:00:00 13.8 14 Sur 39 Sur 0 -- -- 73
2020-05-11 17:00:00 15.2 18 Sur 33 Sudoeste 0 -- -- 70
2020-05-11 16:00:00 14 19 Sudoeste 40 Sur 0 -- -- 71
2020-05-11 15:00:00 14.5 21 Sur 34 Sur 0 -- -- 70
2020-05-11 14:00:00 13.5 18 Sur 32 Sur 0 -- -- 75
2020-05-11 13:00:00 13 17 Sur 36 Sudoeste 0 -- -- 76
2020-05-11 12:00:00 11.7 14 Sur 32 Sudoeste 0.2 -- -- 79
2020-05-11 11:00:00 10.3 11 Sur 21 Sudoeste 0 -- -- 86
2020-05-11 10:00:00 9.8 10 Sur 33 Sur 0 -- -- 85
2020-05-11 09:00:00 9.2 14 Sur 28 Sudoeste 0 -- -- 88
2020-05-11 08:00:00 8.5 18 Sudeste 30 Sudeste 0.2 -- -- 89
2020-05-11 07:00:00 8.3 13 Sur 28 Sur 0 -- -- 86
2020-05-11 06:00:00 8.4 19 Sur 33 Sur 0.2 -- -- 88
2020-05-11 05:00:00 8.4 12 Sudoeste 27 Sudoeste 0 -- -- 88
2020-05-11 04:00:00 8.2 6 Sudoeste 23 Sudoeste 0 -- -- 92
2020-05-11 03:00:00 8.6 11 Sudoeste 25 Sur 0 -- -- 89
2020-05-11 02:00:00 7.6 8 Sudeste 19 Sudoeste 0 -- -- 90
2020-05-11 01:00:00 7.5 9 Sudoeste 14 Sudoeste 0 -- -- 91
2020-05-11 00:00:00 8.6 11 Sur 15 Sur 0.2 -- -- 90
2020-05-10 23:00:00 9.5 10 Sudoeste 19 Sudoeste 0.4 -- -- 90
2020-05-10 22:00:00 10.7 12 Sudoeste 17 Sudoeste 0 -- -- 80
2020-05-10 21:00:00 11.1 10 Sudoeste 25 Sudoeste 0 -- -- 82
2020-05-10 20:00:00 12.2 15 Sudoeste 27 Sudoeste 0 -- -- 76
2020-05-10 19:00:00 12.5 19 Sudoeste 28 Sudoeste 0 -- -- 73
2020-05-10 18:00:00 12.7 17 Sudoeste 35 Oeste 0 -- -- 71
2020-05-10 17:00:00 12.1 15 Sudoeste 28 Oeste 0 -- -- 73
2020-05-10 16:00:00 11.7 18 Oeste 26 Oeste 0 -- -- 70
2020-05-10 15:00:00 13 12 Sudoeste 24 Sudoeste 0 -- -- 68
2020-05-10 14:00:00 10.8 5 Oeste 18 Noroeste 0 -- -- 79
2020-05-10 13:00:00 10.4 7 Noroeste 17 Noroeste 0 -- -- 80
2020-05-10 12:00:00 9.6 5 Noroeste 13 Oeste 0 -- -- 82
2020-05-10 11:00:00 9.3 2 Oeste 10 Nordeste 0 -- -- 79
2020-05-10 10:00:00 9.4 6 Norte 10 Norte 0 -- -- 79
2020-05-10 09:00:00 7.9 6 Nordeste 14 Sur 0 -- -- 86
2020-05-10 08:00:00 5.4 8 Sudoeste 15 Sudoeste 0 -- -- 92
2020-05-10 07:00:00 5.3 8 Sur 17 Sur 0 -- -- 90
2020-05-10 06:00:00 5.6 12 Sudoeste 19 Sur 0 -- -- 89
2020-05-10 05:00:00 5.7 12 Sudoeste 18 Sudoeste 0 -- -- 89
2020-05-10 04:00:00 5.6 8 Sur 15 Sur 0 -- -- 92
2020-05-10 03:00:00 6.3 3 Noroeste 18 Sudoeste 0 -- -- 93
2020-05-10 02:00:00 6.8 10 Sudoeste 19 Sudoeste 0 -- -- 95
2020-05-10 01:00:00 7.6 9 Sudoeste 17 Sudoeste 0 -- -- 94
2020-05-10 00:00:00 7.4 8 Sudoeste 18 Sur 0 -- -- 92
2020-05-09 23:00:00 7.9 12 Sudoeste 31 Sudoeste 2.4 -- -- 90
2020-05-09 22:00:00 10.5 14 Sudoeste 40 Sur 0 -- -- 80
2020-05-09 21:00:00 10.8 21 Sur 46 Sur 0 -- -- 75
2020-05-09 20:00:00 12.7 17 Sur 50 Sudoeste 0 -- -- 65
2020-05-09 19:00:00 13.9 29 Sur 63 Sur 0 -- -- 61
2020-05-09 18:00:00 14.4 31 Sur 54 Sudoeste 0 -- -- 58
2020-05-09 17:00:00 14.9 19 Sur 41 Sur 0 -- -- 58
2020-05-09 16:00:00 15.1 17 Sur 34 Sur 0 -- -- 60
2020-05-09 15:00:00 14.7 24 Sur 49 Sur 0 -- -- 61
2020-05-09 14:00:00 14.6 20 Sudoeste 45 Sudoeste 0 -- -- 64
2020-05-09 13:00:00 12.8 22 Sur 45 Sur 0 -- -- 70
2020-05-09 12:00:00 13 16 Sur 42 Sur 0 -- -- 67
2020-05-09 11:00:00 12.5 26 Sur 38 Sur 0 -- -- 69
2020-05-09 10:00:00 12.6 8 Sur 26 Sudoeste 0 -- -- 67
2020-05-09 09:00:00 11.1 15 Sudoeste 45 Sudoeste 0 -- -- 74
2020-05-09 08:00:00 11.3 11 Norte 36 Sudeste 0 -- -- 75
2020-05-09 07:00:00 11.5 9 Sudoeste 32 Sur 0 -- -- 76
2020-05-09 06:00:00 12.5 17 Sudoeste 38 Sudoeste 0 -- -- 77
2020-05-09 05:00:00 12.7 17 Sudoeste 39 Sur 0 -- -- 78
2020-05-09 04:00:00 12.9 9 Sudoeste 28 Sudoeste 0 -- -- 78
2020-05-09 03:00:00 12.4 10 Sur 17 Sur 0 -- -- 79
2020-05-09 02:00:00 10.9 2 Sudoeste 10 Noroeste 0 -- -- 87
2020-05-09 01:00:00 12.4 8 Noroeste 12 Sur 0 -- -- 84
2020-05-09 00:00:00 13.7 7 Sur 14 Sur 0 -- -- 77
2020-05-08 23:00:00 14.4 3 Sur 7 Sudoeste 0 -- -- 74
2020-05-08 22:00:00 15.3 5 Sudoeste 14 Sudoeste 0 -- -- 70
2020-05-08 21:00:00 17.5 9 Sudoeste 32 Sudoeste 0 -- -- 64
2020-05-08 20:00:00 18.9 21 Sudoeste 36 Sudoeste 0 -- -- 59
2020-05-08 19:00:00 18.8 21 Sur 37 Sur 0 -- -- 59
2020-05-08 18:00:00 20 17 Sur 40 Sur 0 -- -- 56
2020-05-08 17:00:00 19.8 16 Sur 39 Sudoeste 0 -- -- 56
2020-05-08 16:00:00 20.4 18 Sur 43 Sur 0.2 -- -- 55
2020-05-08 15:00:00 19.1 13 Sudeste 29 Sudoeste 0 -- -- 56
2020-05-08 14:00:00 19.1 9 Sur 36 Sudeste 0 -- -- 59
2020-05-08 13:00:00 19.4 16 Sudeste 28 Sudeste 0 -- -- 59
2020-05-08 12:00:00 17.7 3 Noroeste 10 Norte 0 -- -- 66
2020-05-08 11:00:00 17.1 5 Noroeste 17 Nordeste 0 -- -- 65
2020-05-08 10:00:00 17.1 9 Sudeste 18 Sudeste 0 -- -- 64
2020-05-08 09:00:00 15.9 4 Nordeste 14 Sur 0 -- -- 72
2020-05-08 08:00:00 13.4 10 Sur 17 Sur 0 -- -- 77
2020-05-08 07:00:00 13.4 12 Sudoeste 23 Sur 0 -- -- 83
2020-05-08 06:00:00 14.2 16 Sudoeste 39 Sur 0.2 -- -- 83
2020-05-08 05:00:00 15.1 22 Sur 31 Sur 0 -- -- 77
2020-05-08 04:00:00 14.6 13 Sur 28 Sudeste 1.6 -- -- 82
2020-05-08 03:00:00 13.7 10 Sur 16 Sur 0 -- -- 84
2020-05-08 02:00:00 15.1 4 Nordeste 11 Sudeste 0 -- -- 82
2020-05-08 01:00:00 14.7 4 Este 14 Noroeste 0 -- -- 86
2020-05-08 00:00:00 17.2 4 Sudoeste 16 Sur 1.4 -- -- 70
2020-05-07 23:00:00 19.1 6 Sur 27 Sudeste 0 -- -- 57
2020-05-07 22:00:00 19.5 11 Sur 32 Sur 0 -- -- 56
2020-05-07 21:00:00 20 19 Sur 46 Sudeste 0 -- -- 58
2020-05-07 20:00:00 21.4 24 Sur 42 Sudeste 0 -- -- 49
2020-05-07 19:00:00 21.9 24 Sur 45 Sur 0 -- -- 45
2020-05-07 18:00:00 23 19 Sur 35 Sur 0 -- -- 41
2020-05-07 17:00:00 20.5 14 Sur 40 Sur 0 -- -- 44
2020-05-07 16:00:00 20.3 14 Sur 35 Sudoeste 0 -- -- 51
2020-05-07 15:00:00 22.5 15 Sur 27 Sudoeste 0 -- -- 45
2020-05-07 14:00:00 23.2 16 Sudeste 33 Sudeste 0 -- -- 42
2020-05-07 13:00:00 23.1 13 Sudeste 31 Sudeste 0 -- -- 40
2020-05-07 12:00:00 21.3 15 Nordeste 21 Nordeste 0 -- -- 45
2020-05-07 11:00:00 19.4 14 Nordeste 19 Nordeste 0 -- -- 45
2020-05-07 10:00:00 16.5 2 Este 10 Sudeste 0 -- -- 61
2020-05-07 09:00:00 13.8 8 Sur 15 Sur 0 -- -- 69
2020-05-07 08:00:00 11.4 4 Sur 16 Sur 0 -- -- 71
2020-05-07 07:00:00 12.4 10 Este 18 Este 0 -- -- 67
2020-05-07 06:00:00 14.3 15 Este 23 Este 0 -- -- 61
2020-05-07 05:00:00 13 10 Este 15 Este 0 -- -- 64
2020-05-07 04:00:00 13.7 11 Este 19 Este 0 -- -- 63
2020-05-07 03:00:00 12.7 13 Este 19 Este 0 -- -- 70
2020-05-07 02:00:00 12.9 7 Este 15 Este 0 -- -- 69
2020-05-07 01:00:00 11.4 7 Este 13 Este 0 -- -- 78
2020-05-07 00:00:00 10.7 8 Sudeste 13 Sur 0 -- -- 80
2020-05-06 23:00:00 11.7 12 Sur 14 Sudeste 0 -- -- 77
2020-05-06 22:00:00 12.9 7 Sudeste 9 Sudeste 0 -- -- 74
2020-05-06 21:00:00 17 3 Norte 14 Noroeste 0 -- -- 59
2020-05-06 20:00:00 19 9 Noroeste 18 Noroeste 0 -- -- 53
2020-05-06 19:00:00 19.6 10 Noroeste 19 Norte 0 -- -- 54
2020-05-06 18:00:00 19 9 Noroeste 22 Oeste 0 -- -- 57
2020-05-06 17:00:00 19.4 9 Noroeste 17 Noroeste 0 -- -- 55
2020-05-06 16:00:00 19.2 7 Noroeste 16 Noroeste 0 -- -- 52
2020-05-06 15:00:00 18 7 Oeste 18 Norte 0 -- -- 53
2020-05-06 14:00:00 17.2 5 Nordeste 17 Nordeste 0 -- -- 58
2020-05-06 13:00:00 15.8 10 Nordeste 20 Este 0 -- -- 68
2020-05-06 12:00:00 13.6 13 Nordeste 22 Nordeste 0 -- -- 80
2020-05-06 11:00:00 11.2 8 Nordeste 14 Nordeste 0 -- -- 91
2020-05-06 10:00:00 9.9 4 Este 10 Nordeste 0 -- -- 98
2020-05-06 09:00:00 9.3 6 Nordeste 11 Nordeste 0 -- -- 97
2020-05-06 08:00:00 8.3 2 Sudeste 9 Sudeste 0 -- -- 96
2020-05-06 07:00:00 6.6 5 Sur 11 Sur 0 -- -- 96
2020-05-06 06:00:00 6.4 6 Sudeste 9 Sudeste 0 -- -- 95
2020-05-06 05:00:00 6.8 9 Sur 14 Sur 0 -- -- 92
2020-05-06 04:00:00 6.9 11 Sur 13 Sur 0 -- -- 90
2020-05-06 03:00:00 7.2 9 Sur 11 Sur 0 -- -- 88
2020-05-06 02:00:00 8.1 4 Sur 14 Sur 0 -- -- 85
2020-05-06 01:00:00 8.5 11 Sur 14 Sur 0 -- -- 83
2020-05-06 00:00:00 9.2 10 Sur 13 Sur 0 -- -- 80
2020-05-05 23:00:00 9.5 8 Sudoeste 13 Sur 0 -- -- 78
2020-05-05 22:00:00 11.7 9 Sudoeste 14 Sudoeste 0 -- -- 68
2020-05-05 21:00:00 14.9 8 Sudoeste 26 Oeste 0 -- -- 58
2020-05-05 20:00:00 16.7 17 Oeste 27 Oeste 0 -- -- 51
2020-05-05 19:00:00 16.3 17 Sudoeste 33 Sudoeste 0 -- -- 54
2020-05-05 18:00:00 18.4 19 Sudoeste 32 Sudoeste 0 -- -- 42
2020-05-05 17:00:00 16.8 9 Sur 25 Sur 0 -- -- 50
2020-05-05 16:00:00 17.9 15 Sudoeste 26 Sur 0 -- -- 52
2020-05-05 15:00:00 17.9 15 Sudoeste 28 Sudoeste 0 -- -- 44
2020-05-05 14:00:00 16.6 13 Sudoeste 22 Oeste 0 -- -- 49
2020-05-05 13:00:00 15.6 11 Sudoeste 23 Sudoeste 0 -- -- 50
2020-05-05 12:00:00 13.7 14 Sudoeste 24 Sudoeste 0 -- -- 57
2020-05-05 11:00:00 13.5 12 Sudoeste 24 Sudoeste 0 -- -- 52
2020-05-05 10:00:00 11.6 13 Sudoeste 22 Sudoeste 0 -- -- 59
2020-05-05 09:00:00 9.8 9 Sudoeste 13 Sudoeste 0 -- -- 68
2020-05-05 08:00:00 8 5 Sudoeste 11 Oeste 0 -- -- 72
2020-05-05 07:00:00 7 4 Sur 9 Sur 0 -- -- 77
2020-05-05 06:00:00 7.8 2 Este 11 Este 0 -- -- 81
2020-05-05 05:00:00 8.3 5 Este 11 Este 0 -- -- 88
2020-05-05 04:00:00 8.1 2 Sudeste 6 Noroeste 0 -- -- 89
2020-05-05 03:00:00 9.4 0 Calma 18 Sudoeste 0 -- -- 79
2020-05-05 02:00:00 10.4 13 Sudoeste 25 Oeste 0 -- -- 82
2020-05-05 01:00:00 11.1 15 Sudoeste 27 Sudoeste 0 -- -- 78
2020-05-05 00:00:00 11.8 19 Sudoeste 36 Sudoeste 0 -- -- 72
2020-05-04 23:00:00 13 20 Sudoeste 45 Sudoeste 0 -- -- 60
2020-05-04 22:00:00 13.6 21 Sur 42 Sur 0 -- -- 52
2020-05-04 21:00:00 15 28 Sudoeste 46 Sudoeste 0 -- -- 53
2020-05-04 20:00:00 16.8 28 Sudoeste 49 Sudoeste 0 -- -- 52
2020-05-04 19:00:00 17.5 35 Sudoeste 58 Sudoeste 0 -- -- 52
2020-05-04 18:00:00 18.7 33 Sudoeste 50 Sudoeste 0 -- -- 55
2020-05-04 17:00:00 18.4 31 Sudoeste 66 Sur 0 -- -- 62
2020-05-04 16:00:00 19.4 27 Sur 63 Sur 0 -- -- 57
2020-05-04 15:00:00 19 28 Sur 63 Sur 0 -- -- 61
2020-05-04 14:00:00 20.4 31 Sur 60 Sur 0 -- -- 51
2020-05-04 13:00:00 21.9 28 Sur 58 Sudeste 0 -- -- 46
2020-05-04 12:00:00 22.2 26 Sur 60 Sudeste 0 -- -- 43
2020-05-04 11:00:00 22 32 Sur 51 Sudeste 0 -- -- 41
2020-05-04 10:00:00 22.3 31 Sur 57 Sudoeste 0 -- -- 37
2020-05-04 09:00:00 21.9 22 Sudeste 67 Sudeste 0 -- -- 38
2020-05-04 08:00:00 22.2 26 Sudeste 61 Sudeste 0 -- -- 37
2020-05-04 07:00:00 22.4 36 Sudeste 56 Sudeste 0 -- -- 35
2020-05-04 06:00:00 22.3 33 Sudeste 57 Sudeste 0 -- -- 34
2020-05-04 05:00:00 22.7 33 Sudeste 58 Sudeste 0 -- -- 33
2020-05-04 04:00:00 21.7 26 Sudeste 50 Sudeste 0 -- -- 41
2020-05-04 03:00:00 22.1 34 Sudeste 53 Sudeste 0 -- -- 41
2020-05-04 02:00:00 22.3 30 Sudeste 50 Sudeste 0 -- -- 41
2020-05-04 01:00:00 22.4 14 Sudeste 62 Sudeste 0 -- -- 40
2020-05-04 00:00:00 21.8 20 Sudeste 44 Sudeste 0 -- -- 44
2020-05-03 23:00:00 21.1 22 Sur 39 Sur 0 -- -- 48
2020-05-03 22:00:00 19.9 14 Sudeste 28 Sudeste 0 -- -- 55
2020-05-03 21:00:00 21.1 9 Sudeste 27 Sudeste 0 -- -- 53
2020-05-03 20:00:00 22.3 19 Sur 31 Sudeste 0 -- -- 50
2020-05-03 19:00:00 23 21 Sur 37 Sur 0 -- -- 50
2020-05-03 18:00:00 23.6 16 Sudeste 33 Sur 0 -- -- 47
2020-05-03 17:00:00 23.5 14 Sudeste 40 Sudeste 0 -- -- 41
2020-05-03 16:00:00 23.5 24 Sur 42 Sur 0 -- -- 44
2020-05-03 15:00:00 23.1 18 Sudeste 32 Sur 0 -- -- 45
2020-05-03 14:00:00 22.7 15 Sur 35 Sudoeste 0 -- -- 45
2020-05-03 13:00:00 21.8 17 Sur 33 Sur 0 -- -- 45
2020-05-03 12:00:00 21.2 16 Sur 32 Sudoeste 0 -- -- 49
2020-05-03 11:00:00 20.2 17 Sudoeste 33 Sudoeste 0 -- -- 50
2020-05-03 10:00:00 19.5 17 Sur 25 Sur 0 -- -- 47
2020-05-03 09:00:00 17 15 Sur 22 Sur 0 -- -- 51
2020-05-03 08:00:00 12.2 7 Sudeste 15 Sur 0 -- -- 61
2020-05-03 07:00:00 10 6 Este 17 Sudeste 0 -- -- 69
2020-05-03 06:00:00 9.3 7 Sur 16 Sur 0 -- -- 74
2020-05-03 05:00:00 8.7 9 Sudeste 17 Sudeste 0 -- -- 79
2020-05-03 04:00:00 9.1 8 Sudeste 14 Sur 0 -- -- 78
2020-05-03 03:00:00 10.6 6 Sudeste 17 Sur 0 -- -- 78
2020-05-03 02:00:00 11.6 10 Sur 17 Sudeste 0 -- -- 82
2020-05-03 01:00:00 11.9 14 Sur 18 Sur 0 -- -- 79
2020-05-03 00:00:00 12.8 13 Sur 17 Sur 0 -- -- 78
2020-05-02 23:00:00 13.1 12 Sur 17 Sur 0 -- -- 80
2020-05-02 22:00:00 14.1 12 Sur 17 Sudoeste 0 -- -- 77
2020-05-02 21:00:00 18.6 10 Sudoeste 22 Oeste 0 -- -- 58
2020-05-02 20:00:00 20.5 17 Oeste 24 Oeste 0 -- -- 51
2020-05-02 19:00:00 21.5 18 Sudoeste 32 Sudoeste 0 -- -- 49
2020-05-02 18:00:00 22 16 Sudoeste 38 Sudoeste 0 -- -- 46
2020-05-02 17:00:00 21.8 21 Sudoeste 44 Oeste 0 -- -- 45
2020-05-02 16:00:00 21.2 24 Sudoeste 37 Oeste 0 -- -- 46
2020-05-02 15:00:00 21.2 21 Sudoeste 36 Sudoeste 0 -- -- 48
2020-05-02 14:00:00 20.2 17 Sudoeste 32 Sudoeste 0 -- -- 56
2020-05-02 13:00:00 19.1 15 Sudoeste 27 Oeste 0 -- -- 58
2020-05-02 12:00:00 16.2 6 Noroeste 11 Norte 0 -- -- 77
2020-05-02 11:00:00 13.6 4 Nordeste 10 Este 0 -- -- 84
2020-05-02 10:00:00 10 0 Calma 6 Sudoeste 0 -- -- 99
2020-05-02 09:00:00 9.4 3 Sudoeste 8 Sur 0 -- -- 99
2020-05-02 08:00:00 8.5 3 Sur 9 Sudeste 0 -- -- 99
2020-05-02 07:00:00 8.8 4 Sudeste 10 Este 0 -- -- 98
2020-05-02 06:00:00 10 0 Calma 6 Sur 0 -- -- 98
2020-05-02 05:00:00 9.3 3 Sur 7 Sur 0 -- -- 98
2020-05-02 04:00:00 8.1 3 Sur 8 Sur 0 -- -- 96
2020-05-02 03:00:00 9 6 Sur 9 Sur 0 -- -- 94
2020-05-02 02:00:00 10.9 4 Sudoeste 12 Sudoeste 0 -- -- 91
2020-05-02 01:00:00 11.9 6 Sudoeste 12 Sudoeste 0 -- -- 91
2020-05-02 00:00:00 12.4 9 Sudoeste 19 Oeste 0 -- -- 90
2020-05-01 23:00:00 13.1 10 Oeste 15 Oeste 0 -- -- 88
2020-05-01 22:00:00 13.6 7 Sudoeste 20 Oeste 0 -- -- 84
2020-05-01 21:00:00 15 10 Oeste 16 Sudoeste 0 -- -- 82
2020-05-01 20:00:00 15.7 12 Sudoeste 22 Sudoeste 0 -- -- 77
2020-05-01 19:00:00 15.9 14 Sudoeste 28 Sudoeste 0 -- -- 75
2020-05-01 18:00:00 16.6 20 Sudoeste 30 Sudoeste 0 -- -- 73
2020-05-01 17:00:00 17 20 Sudoeste 34 Sudoeste 0 -- -- 71
2020-05-01 16:00:00 16.3 18 Sudoeste 30 Sudoeste 0 -- -- 71
2020-05-01 15:00:00 16.2 19 Sudoeste 30 Sudoeste 0 -- -- 71
2020-05-01 14:00:00 16 21 Sudoeste 37 Sudoeste 0 -- -- 73
2020-05-01 13:00:00 15.3 23 Sudoeste 40 Sudoeste 0 -- -- 73
2020-05-01 12:00:00 14.7 21 Sudoeste 48 Sudoeste 0 -- -- 75
2020-05-01 11:00:00 13.5 30 Sudoeste 46 Sur 0 -- -- 81
2020-05-01 10:00:00 11.5 22 Sudoeste 38 Sudoeste 0 -- -- 89
2020-05-01 09:00:00 11.1 24 Sudoeste 42 Sur 0 -- -- 92
2020-05-01 08:00:00 10.7 23 Sudoeste 37 Sudoeste 0 -- -- 94
2020-05-01 07:00:00 10.6 22 Sudoeste 55 Sudoeste 0 -- -- 93
2020-05-01 06:00:00 11.2 23 Sudoeste 37 Sur 0 -- -- 89
2020-05-01 05:00:00 11.2 18 Sudoeste 32 Sudoeste 0 -- -- 86
2020-05-01 04:00:00 11.7 18 Sudoeste 31 Sudoeste 0 -- -- 82
2020-05-01 03:00:00 11 16 Sudoeste 36 Sudoeste 0 -- -- 85
2020-05-01 02:00:00 10.5 21 Sudoeste 33 Sur 0 -- -- 85
2020-05-01 01:00:00 10.6 19 Sudoeste 34 Sudoeste 0 -- -- 84
2020-05-01 00:00:00 10.2 24 Sudoeste 40 Sudoeste 0 -- -- 86
2020-04-30 23:00:00 10.5 19 Sudoeste 34 Sudoeste 0 -- -- 85
2020-04-30 22:00:00 10.6 22 Sudoeste 32 Sudoeste 0 -- -- 85
2020-04-30 21:00:00 11.1 8 Sudoeste 26 Sudoeste 0 -- -- 83
2020-04-30 20:00:00 11.9 19 Sudoeste 36 Sudoeste 0 -- -- 78
2020-04-30 19:00:00 12.6 19 Sudoeste 34 Sudoeste 0 -- -- 76
2020-04-30 18:00:00 12.6 14 Sudoeste 35 Oeste 0 -- -- 76
2020-04-30 17:00:00 12.5 22 Sudoeste 39 Oeste 0 -- -- 72
2020-04-30 16:00:00 12.6 21 Sudoeste 35 Sudoeste 0 -- -- 73
2020-04-30 15:00:00 11.8 15 Sudoeste 31 Oeste 0 -- -- 74
2020-04-30 14:00:00 11.9 21 Sudoeste 32 Sudoeste 0 -- -- 71
2020-04-30 13:00:00 11.2 25 Sudoeste 40 Sudoeste 0 -- -- 73
2020-04-30 12:00:00 11 22 Sudoeste 39 Sudoeste 0 -- -- 77
2020-04-30 11:00:00 8.9 22 Oeste 36 Sudoeste 0 -- -- 84
2020-04-30 10:00:00 8.6 20 Sudoeste 40 Sudoeste 0 -- -- 85
2020-04-30 09:00:00 7.4 24 Sudoeste 41 Oeste 0 -- -- 92
2020-04-30 08:00:00 6.8 24 Sudoeste 39 Sudoeste 0 -- -- 94
2020-04-30 07:00:00 7.1 22 Sudoeste 42 Sudoeste 0 -- -- 88
2020-04-30 06:00:00 7.4 26 Sudoeste 45 Sudoeste 0 -- -- 83
2020-04-30 05:00:00 7.3 23 Sudoeste 35 Sudoeste 0 -- -- 79
2020-04-30 04:00:00 7.1 21 Sudoeste 35 Sur 0 -- -- 79
2020-04-30 03:00:00 7.3 20 Sudoeste 33 Sudoeste 0 -- -- 81
2020-04-30 02:00:00 7.4 20 Sudoeste 30 Sudoeste 0 -- -- 81
2020-04-30 01:00:00 7.8 17 Sudoeste 31 Sudoeste 0 -- -- 83
2020-04-30 00:00:00 8.3 19 Sudoeste 31 Sudoeste 0 -- -- 85
2020-04-29 23:00:00 8.7 18 Sudoeste 31 Sudoeste 0 -- -- 82
2020-04-29 22:00:00 9.4 21 Sudoeste 39 Sur 0 -- -- 80
2020-04-29 21:00:00 10.6 24 Sudoeste 44 Sudoeste 0 -- -- 79
2020-04-29 20:00:00 11.6 22 Sudoeste 45 Sudoeste 0 -- -- 78
2020-04-29 19:00:00 12.4 28 Sudoeste 50 Sudoeste 0 -- -- 74
2020-04-29 18:00:00 12.2 31 Sudoeste 47 Sudoeste 0 -- -- 80
2020-04-29 17:00:00 10 21 Sudoeste 40 Sudoeste 0 -- -- 90
2020-04-29 16:00:00 11 21 Sudoeste 52 Sur 0 -- -- 80
2020-04-29 15:00:00 11.2 29 Sur 45 Sur 0 -- -- 76
2020-04-29 14:00:00 10.7 24 Sur 45 Sur 0 -- -- 84
2020-04-29 13:00:00 12.9 25 Sur 45 Sudoeste 0 -- -- 67
2020-04-29 12:00:00 11.6 22 Sudoeste 39 Sudoeste 0 -- -- 68
2020-04-29 11:00:00 10.8 27 Sudoeste 41 Sudoeste 0 -- -- 64
2020-04-29 10:00:00 9.1 19 Sudoeste 40 Sudoeste 0 -- -- 65
2020-04-29 09:00:00 8.7 23 Sudoeste 36 Sur 0 -- -- 64
2020-04-29 08:00:00 6.9 17 Sudoeste 38 Sudoeste 0 -- -- 68
2020-04-29 07:00:00 6.4 18 Sudoeste 28 Sur 0 -- -- 71
2020-04-29 06:00:00 6.4 13 Sudoeste 23 Sudoeste 0 -- -- 74
2020-04-29 05:00:00 6.6 11 Sudoeste 26 Sudoeste 0 -- -- 77
2020-04-29 04:00:00 5.5 9 Sudoeste 17 Sudoeste 0 -- -- 84
2020-04-29 03:00:00 6.3 12 Sudoeste 21 Sur 0 -- -- 87
2020-04-29 02:00:00 6.1 10 Sudoeste 18 Sur 0 -- -- 90
2020-04-29 01:00:00 6.8 8 Sudoeste 14 Sur 0 -- -- 92
2020-04-29 00:00:00 6.6 8 Sudoeste 14 Sudoeste 0 -- -- 92
2020-04-28 23:00:00 7.3 9 Sudoeste 17 Sudoeste 0 -- -- 89
2020-04-28 22:00:00 7.7 10 Sudoeste 21 Sudoeste 0 -- -- 87
2020-04-28 21:00:00 8.4 14 Sudoeste 30 Oeste 0 -- -- 84
2020-04-28 20:00:00 9.9 17 Oeste 29 Oeste 0 -- -- 73
2020-04-28 19:00:00 11.1 18 Oeste 31 Sudoeste 0 -- -- 66
2020-04-28 18:00:00 10.4 20 Oeste 31 Oeste 0 -- -- 75
2020-04-28 17:00:00 10.5 23 Oeste 38 Oeste 0 -- -- 72
2020-04-28 16:00:00 10.3 18 Oeste 31 Oeste 0 -- -- 71
2020-04-28 15:00:00 9.8 19 Oeste 33 Oeste 0 -- -- 73
2020-04-28 14:00:00 9.5 19 Oeste 32 Oeste 0 -- -- 81
2020-04-28 13:00:00 7.5 14 Sudoeste 28 Sudoeste 0 -- -- 92
2020-04-28 12:00:00 6.7 12 Sudoeste 23 Oeste 0.6 -- -- 92
2020-04-28 11:00:00 7 13 Oeste 23 Oeste 0 -- -- 86
2020-04-28 10:00:00 7.1 14 Oeste 20 Sudoeste 0 -- -- 85
2020-04-28 09:00:00 5.6 9 Sudoeste 14 Oeste 0 -- -- 93
2020-04-28 08:00:00 4.7 8 Sudoeste 15 Sudoeste 0 -- -- 93
2020-04-28 07:00:00 5 10 Sudoeste 15 Sudoeste 0 -- -- 92
2020-04-28 06:00:00 5 6 Sudoeste 11 Sudoeste 0 -- -- 96
2020-04-28 05:00:00 4.6 6 Sudoeste 16 Sudoeste 0 -- -- 96
2020-04-28 04:00:00 4.9 10 Sudoeste 13 Sudoeste 0 -- -- 96
2020-04-28 03:00:00 5.7 6 Sudoeste 14 Sudoeste 0 -- -- 95
2020-04-28 02:00:00 5.5 8 Sudoeste 17 Sudoeste 0 -- -- 94
2020-04-28 01:00:00 6.1 10 Sudoeste 18 Sudoeste 0.2 -- -- 93
2020-04-28 00:00:00 6.6 9 Sudoeste 15 Sudoeste 0 -- -- 94
2020-04-27 23:00:00 6.4 6 Sudoeste 16 Sudoeste 0 -- -- 91
2020-04-27 22:00:00 6.5 10 Sudoeste 19 Sudoeste 0 -- -- 89
2020-04-27 21:00:00 7.4 12 Sudoeste 27 Sudoeste 0.2 -- -- 89
2020-04-27 20:00:00 7.5 14 Sudoeste 22 Sur 0.6 -- -- 92
2020-04-27 19:00:00 8.4 12 Sudoeste 20 Sur 0.4 -- -- 90
2020-04-27 18:00:00 8.3 9 Sudoeste 25 Oeste 1.4 -- -- 89
2020-04-27 17:00:00 9.3 17 Oeste 23 Oeste 0 -- -- 83
2020-04-27 16:00:00 8.5 8 Sudoeste 41 Oeste 0.8 -- -- 88
2020-04-27 15:00:00 11.7 17 Oeste 29 Oeste 0 -- -- 65
2020-04-27 14:00:00 9.6 12 Oeste 22 Oeste 0 -- -- 78
2020-04-27 13:00:00 8.2 10 Oeste 17 Oeste 0 -- -- 84
2020-04-27 12:00:00 6.7 11 Oeste 21 Oeste 0.2 -- -- 91
2020-04-27 11:00:00 7.2 8 Oeste 14 Oeste 0 -- -- 93
2020-04-27 10:00:00 6.6 9 Oeste 13 Oeste 0 -- -- 97
2020-04-27 09:00:00 6.6 8 Oeste 13 Oeste 0 -- -- 98
2020-04-27 08:00:00 6.1 0 Calma 6 Sudoeste 0 -- -- 98
2020-04-27 07:00:00 6.3 5 Sur 8 Sur 0 -- -- 97
2020-04-27 06:00:00 6.3 0 Calma 4 Noroeste 0 -- -- 96
2020-04-27 05:00:00 6.3 0 Calma 6 Sudeste 0 -- -- 97
2020-04-27 04:00:00 6.4 2 Sudeste 4 Sudoeste 0 -- -- 97
2020-04-27 03:00:00 6.6 3 Sudoeste 15 Sudoeste 0 -- -- 96
2020-04-27 02:00:00 6.9 9 Sudoeste 13 Sudoeste 0 -- -- 95
2020-04-27 01:00:00 7.1 5 Sudoeste 11 Sudoeste 0 -- -- 94
2020-04-27 00:00:00 7.1 8 Oeste 23 Sudoeste 0 -- -- 95
2020-04-26 23:00:00 7.9 6 Sur 9 Sur 0 -- -- 93
2020-04-26 22:00:00 8 5 Sur 7 Sur 0 -- -- 93
2020-04-26 21:00:00 8.3 5 Sur 9 Sur 0 -- -- 91
2020-04-26 20:00:00 8.5 8 Sur 12 Sur 0 -- -- 95
2020-04-26 19:00:00 7.7 6 Oeste 19 Sudoeste 0.4 -- -- 95
2020-04-26 18:00:00 8.5 13 Oeste 30 Oeste 0 -- -- 89
2020-04-26 17:00:00 10.4 7 Sudoeste 24 Oeste 0 -- -- 82
2020-04-26 16:00:00 11 15 Sudoeste 26 Sudoeste 0 -- -- 71
2020-04-26 15:00:00 11.5 13 Sudoeste 30 Sudoeste 0 -- -- 79
2020-04-26 14:00:00 13.3 15 Sur 27 Sudoeste 0 -- -- 70
2020-04-26 13:00:00 10.8 9 Noroeste 15 Oeste 0 -- -- 95
2020-04-26 12:00:00 9.4 7 Noroeste 13 Oeste 0 -- -- 100
2020-04-26 11:00:00 7.8 4 Oeste 6 Oeste 0 -- -- 100
2020-04-26 10:00:00 -- 0 Calma -- -- 0 -- -- --
2020-04-26 09:00:00 7.1 3 Oeste 8 Oeste 0.2 -- -- 100
2020-04-26 08:00:00 7.3 4 Oeste 8 Noroeste 0.2 -- -- 100
2020-04-26 07:00:00 7.7 4 Noroeste 9 Noroeste 0 -- -- 100
2020-04-26 06:00:00 7.9 5 Oeste 8 Sudoeste 0 -- -- 100
2020-04-26 05:00:00 7.8 4 Oeste 16 Oeste 0 -- -- 100
2020-04-26 04:00:00 8.5 9 Oeste 14 Oeste 0 -- -- 99
2020-04-26 03:00:00 8.9 6 Oeste 9 Noroeste 0 -- -- 99
2020-04-26 02:00:00 9.3 4 Oeste 10 Oeste 0 -- -- 99
2020-04-26 01:00:00 9.6 6 Oeste 13 Sudoeste 0 -- -- 98
2020-04-26 00:00:00 10 5 Oeste 8 Sudoeste 0 -- -- 98